createdAt,value
2023-05-09T00:01:14.015Z,60.40
2023-05-09T00:03:42.777Z,64.73
2023-05-09T00:06:09.941Z,63.10
2023-05-09T00:08:37.957Z,65.80
2023-05-09T00:11:04.761Z,63.35
2023-05-09T00:13:31.368Z,66.00
2023-05-09T00:15:58.470Z,75.13
2023-05-09T00:18:25.113Z,65.50
2023-05-09T00:20:51.791Z,63.90
2023-05-09T00:23:18.372Z,65.90
2023-05-09T00:25:45.071Z,65.32
2023-05-09T00:28:11.654Z,62.20
2023-05-09T00:30:38.274Z,62.70
2023-05-09T00:33:04.918Z,63.05
2023-05-09T00:35:32.307Z,69.45
2023-05-09T00:37:59.469Z,64.47
2023-05-09T00:40:26.263Z,61.80
2023-05-09T00:42:52.961Z,60.92
2023-05-09T00:45:19.666Z,65.72
2023-05-09T00:47:46.352Z,63.88
2023-05-09T00:50:13.828Z,60.70
2023-05-09T00:52:41.012Z,58.63
2023-05-09T00:55:08.516Z,62.15
2023-05-09T00:57:35.837Z,62.50
2023-05-09T01:00:04.317Z,66.25
2023-05-09T01:02:32.241Z,69.55
2023-05-09T01:04:59.097Z,65.83
2023-05-09T01:07:45.843Z,67.55
2023-05-09T01:10:27.492Z,69.38
2023-05-09T01:13:04.837Z,70.47
2023-05-09T01:15:31.494Z,67.32
2023-05-09T01:18:03.582Z,67.03
2023-05-09T01:20:45.607Z,64.88
2023-05-09T01:23:34.054Z,61.25
2023-05-09T01:26:04.724Z,71.57
2023-05-09T01:29:09.206Z,66.03
2023-05-09T01:31:40.590Z,62.53
2023-05-09T01:34:08.418Z,62.05
2023-05-09T01:36:38.074Z,70.78
2023-05-09T01:39:05.781Z,65.03
2023-05-09T01:41:36.241Z,64.20
2023-05-09T01:44:06.768Z,76.03
2023-05-09T01:46:35.596Z,73.28
2023-05-09T01:49:03.591Z,72.78
2023-05-09T01:51:31.872Z,71.85
2023-05-09T01:54:00.132Z,72.00
2023-05-09T01:56:27.874Z,66.90
2023-05-09T01:58:56.301Z,66.70
2023-05-09T02:01:24.026Z,69.70
2023-05-09T02:03:54.935Z,72.75
2023-05-09T02:06:24.305Z,70.07
2023-05-09T02:08:51.482Z,71.43
2023-05-09T02:11:18.259Z,66.90
2023-05-09T02:13:44.914Z,72.63
2023-05-09T02:16:12.192Z,78.28
2023-05-09T02:18:38.903Z,76.50
2023-05-09T02:21:06.484Z,81.83
2023-05-09T02:23:33.162Z,70.72
2023-05-09T02:26:00.623Z,67.63
2023-05-09T02:28:28.273Z,72.13
2023-05-09T02:30:58.509Z,72.72
2023-05-09T02:33:26.200Z,71.17
2023-05-09T02:35:53.585Z,85.25
2023-05-09T02:38:21.404Z,74.85
2023-05-09T02:40:49.404Z,70.82
2023-05-09T02:43:16.940Z,67.43
2023-05-09T02:45:43.880Z,79.37
2023-05-09T02:48:10.586Z,74.82
2023-05-09T02:50:42.756Z,73.88
2023-05-09T02:53:09.686Z,73.55
2023-05-09T02:55:36.248Z,70.13
2023-05-09T02:58:13.587Z,82.10
2023-05-09T03:00:41.909Z,65.20
2023-05-09T03:03:08.910Z,76.85
2023-05-09T03:05:35.699Z,74.15
2023-05-09T03:08:02.334Z,74.72
2023-05-09T03:10:28.998Z,78.70
2023-05-09T03:12:55.751Z,73.78
2023-05-09T03:15:22.513Z,72.60
2023-05-09T03:17:49.150Z,73.70
2023-05-09T03:20:16.150Z,83.75
2023-05-09T03:22:42.798Z,72.87
2023-05-09T03:25:09.574Z,75.15
2023-05-09T03:27:36.260Z,75.85
2023-05-09T03:30:02.971Z,82.28
2023-05-09T03:32:29.696Z,63.70
2023-05-09T03:34:57.202Z,67.67
2023-05-09T03:37:26.202Z,68.00
2023-05-09T03:39:53.836Z,73.32
2023-05-09T03:42:21.367Z,69.32
2023-05-09T03:44:48.046Z,72.10
2023-05-09T03:47:14.676Z,68.00
2023-05-09T03:49:41.529Z,69.95
2023-05-09T03:52:08.144Z,79.70
2023-05-09T03:54:34.812Z,69.35
2023-05-09T03:57:01.444Z,71.07
2023-05-09T03:59:28.043Z,63.70
2023-05-09T04:01:54.831Z,62.85
2023-05-09T04:04:21.524Z,64.15
2023-05-09T04:06:48.184Z,63.75
2023-05-09T04:09:14.860Z,60.80
2023-05-09T04:11:41.476Z,61.10
2023-05-09T04:14:08.097Z,60.63
2023-05-09T04:16:34.717Z,62.63
2023-05-09T04:19:01.421Z,64.53
2023-05-09T04:21:28.037Z,60.50
2023-05-09T04:23:54.673Z,62.20
2023-05-09T04:26:22.555Z,61.20
2023-05-09T04:28:49.184Z,69.20
2023-05-09T04:31:16.054Z,63.55
2023-05-09T04:33:42.795Z,61.60
2023-05-09T04:36:09.488Z,56.43
2023-05-09T04:38:36.137Z,57.50
2023-05-09T04:41:02.827Z,58.63
2023-05-09T04:43:30.049Z,58.00
2023-05-09T04:45:56.754Z,51.78
2023-05-09T04:48:23.456Z,59.83
2023-05-09T04:50:50.419Z,58.80
2023-05-09T04:53:17.072Z,61.38
2023-05-09T04:55:43.836Z,60.60
2023-05-09T04:58:10.502Z,56.05
2023-05-09T05:00:37.097Z,54.57
2023-05-09T05:03:03.808Z,64.57
2023-05-09T05:05:31.966Z,61.90
2023-05-09T05:08:00.488Z,50.58
2023-05-09T05:10:27.191Z,51.08
2023-05-09T05:12:53.825Z,55.07
2023-05-09T05:15:20.474Z,45.58
2023-05-09T05:17:47.251Z,48.78
2023-05-09T05:20:14.076Z,50.35
2023-05-09T05:22:40.827Z,42.70
2023-05-09T05:25:08.068Z,51.67
2023-05-09T05:27:34.684Z,48.10
2023-05-09T05:30:01.401Z,46.00
2023-05-09T05:32:28.015Z,50.08
2023-05-09T05:34:54.697Z,46.42
2023-05-09T05:37:21.333Z,40.80
2023-05-09T05:39:48.193Z,45.80
2023-05-09T05:42:14.752Z,41.03
2023-05-09T05:44:41.370Z,43.70
2023-05-09T05:47:07.952Z,46.85
2023-05-09T05:49:34.529Z,43.67
2023-05-09T05:52:01.147Z,37.50
2023-05-09T05:54:27.812Z,37.38
2023-05-09T05:56:54.406Z,35.83
2023-05-09T05:59:21.024Z,39.08
2023-05-09T06:01:47.665Z,38.57
2023-05-09T06:04:14.396Z,37.10
2023-05-09T06:06:41.149Z,32.47
2023-05-09T06:09:07.759Z,35.08
2023-05-09T06:11:34.417Z,36.10
2023-05-09T06:14:01.126Z,36.27
2023-05-09T06:16:28.083Z,35.42
2023-05-09T06:18:56.200Z,28.67
2023-05-09T06:21:23.366Z,42.65
2023-05-09T06:24:01.990Z,30.88
2023-05-09T06:26:31.606Z,33.40
2023-05-09T06:28:58.284Z,34.45
2023-05-09T06:31:25.829Z,30.35
2023-05-09T06:33:52.774Z,26.77
2023-05-09T06:36:19.503Z,28.65
2023-05-09T06:38:46.270Z,32.70
2023-05-09T06:41:12.928Z,32.88
2023-05-09T06:43:39.812Z,27.38
2023-05-09T06:46:06.511Z,32.08
2023-05-09T06:48:33.180Z,32.65
2023-05-09T06:50:59.818Z,30.33
2023-05-09T06:53:26.405Z,26.65
2023-05-09T06:55:53.020Z,27.90
2023-05-09T06:58:19.596Z,29.70
2023-05-09T07:00:47.323Z,32.30
2023-05-09T07:03:13.975Z,30.63
2023-05-09T07:05:40.551Z,29.25
2023-05-09T07:08:07.385Z,28.92
2023-05-09T07:10:34.119Z,33.33
2023-05-09T07:13:00.716Z,30.33
2023-05-09T07:15:40.503Z,28.57
2023-05-09T07:18:08.648Z,30.63
2023-05-09T07:20:35.363Z,33.40
2023-05-09T07:23:06.022Z,32.40
2023-05-09T07:25:33.003Z,30.23
2023-05-09T07:27:59.653Z,30.83
2023-05-09T07:30:26.393Z,30.88
2023-05-09T07:32:53.391Z,29.08
2023-05-09T07:35:20.493Z,31.50
2023-05-09T07:37:47.123Z,31.50
2023-05-09T07:40:14.732Z,30.77
2023-05-09T07:42:44.996Z,32.88
2023-05-09T07:45:11.750Z,29.48
2023-05-09T07:47:38.510Z,32.40
2023-05-09T07:50:05.773Z,30.35
2023-05-09T07:52:32.859Z,34.87
2023-05-09T07:54:59.495Z,30.73
2023-05-09T07:57:26.512Z,30.25
2023-05-09T07:59:53.101Z,26.92
2023-05-09T08:02:20.187Z,33.08
2023-05-09T08:04:49.096Z,27.17
2023-05-09T08:07:16.093Z,25.60
2023-05-09T08:09:42.725Z,28.95
2023-05-09T08:12:09.557Z,27.20
2023-05-09T08:14:36.191Z,28.85
2023-05-09T08:17:02.805Z,26.33
2023-05-09T08:19:29.416Z,20.83
2023-05-09T08:21:56.033Z,25.48
2023-05-09T08:24:24.086Z,26.42
2023-05-09T08:26:50.707Z,24.52
2023-05-09T08:29:17.746Z,23.57
2023-05-09T08:31:44.439Z,24.05
2023-05-09T08:34:11.187Z,20.88
2023-05-09T08:36:37.806Z,17.92
2023-05-09T08:39:04.405Z,21.27
2023-05-09T08:41:35.936Z,20.83
2023-05-09T08:44:03.371Z,17.55
2023-05-09T08:46:36.053Z,20.50
2023-05-09T08:49:06.873Z,17.85
2023-05-09T08:51:35.154Z,16.23
2023-05-09T08:54:02.248Z,17.83
2023-05-09T08:56:30.624Z,17.45
2023-05-09T08:58:58.109Z,20.98
2023-05-09T09:01:26.869Z,17.92
2023-05-09T09:03:53.901Z,13.88
2023-05-09T09:06:21.879Z,15.93
2023-05-09T09:08:49.058Z,20.98
2023-05-09T09:11:17.193Z,18.45
2023-05-09T09:13:45.224Z,13.93
2023-05-09T09:16:20.149Z,13.82
2023-05-09T09:18:47.420Z,16.63
2023-05-09T09:21:19.259Z,13.10
2023-05-09T09:23:47.537Z,15.05
2023-05-09T09:26:14.568Z,14.07
2023-05-09T09:28:42.863Z,14.95
2023-05-09T09:31:27.461Z,15.70
2023-05-09T09:34:02.281Z,13.68
2023-05-09T09:36:33.004Z,14.45
2023-05-09T09:39:01.515Z,14.52
2023-05-09T09:41:36.032Z,17.88
2023-05-09T09:44:13.704Z,15.77
2023-05-09T09:46:53.306Z,15.65
2023-05-09T09:49:22.189Z,17.48
2023-05-09T09:51:56.247Z,18.30
2023-05-09T09:54:26.196Z,12.10
2023-05-09T09:56:56.314Z,12.60
2023-05-09T09:59:25.619Z,14.65
2023-05-09T10:01:57.926Z,13.27
2023-05-09T10:04:25.717Z,12.70
2023-05-09T10:06:53.201Z,12.60
2023-05-09T10:09:21.545Z,11.27
2023-05-09T10:11:52.536Z,10.93
2023-05-09T10:14:21.594Z,11.20
2023-05-09T10:16:49.613Z,12.35
2023-05-09T10:19:19.565Z,14.52
2023-05-09T10:21:51.785Z,14.83
2023-05-09T10:24:50.260Z,13.38
2023-05-09T10:27:21.991Z,14.75
2023-05-09T10:30:17.274Z,12.55
2023-05-09T10:32:51.949Z,13.50
2023-05-09T10:35:20.555Z,13.40
2023-05-09T10:37:47.892Z,13.43
2023-05-09T10:40:15.738Z,13.75
2023-05-09T10:42:43.964Z,15.45
2023-05-09T10:45:12.496Z,15.02
2023-05-09T10:47:40.300Z,13.03
2023-05-09T10:50:09.404Z,13.52
2023-05-09T10:53:06.022Z,10.98
2023-05-09T10:55:56.569Z,11.07
2023-05-09T10:58:36.075Z,12.23
2023-05-09T11:01:04.455Z,14.27
2023-05-09T11:03:57.193Z,14.02
2023-05-09T11:06:46.282Z,13.10
2023-05-09T11:09:28.337Z,14.68
2023-05-09T11:12:01.815Z,11.65
2023-05-09T11:14:38.012Z,9.97
2023-05-09T11:17:06.733Z,13.35
2023-05-09T11:19:59.116Z,11.48
2023-05-09T11:22:32.824Z,14.80
2023-05-09T11:25:11.281Z,12.32
2023-05-09T11:27:45.050Z,10.10
2023-05-09T11:30:14.733Z,17.45
2023-05-09T11:32:48.901Z,17.15
2023-05-09T11:35:17.861Z,12.10
2023-05-09T11:37:46.389Z,11.75
2023-05-09T11:40:14.432Z,11.03
2023-05-09T11:42:56.276Z,14.77
2023-05-09T11:45:32.621Z,12.50
2023-05-09T11:48:01.109Z,18.23
2023-05-09T11:50:28.175Z,14.85
2023-05-09T11:52:54.969Z,10.33
2023-05-09T11:55:22.689Z,14.02
2023-05-09T11:57:51.866Z,13.05
2023-05-09T12:00:20.719Z,9.88
2023-05-09T12:02:48.907Z,8.20
2023-05-09T12:05:18.435Z,10.40
2023-05-09T12:07:46.489Z,13.48
2023-05-09T12:10:19.631Z,11.82
2023-05-09T12:12:48.211Z,11.27
2023-05-09T12:15:15.552Z,10.52
2023-05-09T12:17:43.777Z,15.47
2023-05-09T12:20:10.833Z,7.65
2023-05-09T12:22:37.581Z,7.57
2023-05-09T12:25:10.148Z,11.02
2023-05-09T12:27:38.681Z,12.90
2023-05-09T12:30:15.941Z,9.47
2023-05-09T12:32:43.521Z,10.13
2023-05-09T12:35:21.152Z,10.40
2023-05-09T12:38:02.262Z,8.25
2023-05-09T12:40:32.013Z,8.90
2023-05-09T12:43:03.684Z,9.07
2023-05-09T12:45:32.924Z,9.68
2023-05-09T12:48:02.302Z,9.13
2023-05-09T12:50:35.287Z,11.38
2023-05-09T12:53:04.187Z,10.70
2023-05-09T12:55:32.697Z,13.63
2023-05-09T12:58:02.378Z,13.48
2023-05-09T13:00:41.223Z,9.13
2023-05-09T13:03:20.958Z,10.63
2023-05-09T13:06:05.371Z,8.50
2023-05-09T13:08:32.579Z,7.53
2023-05-09T13:11:12.140Z,10.65
2023-05-09T13:13:42.511Z,13.02
2023-05-09T13:16:11.147Z,8.10
2023-05-09T13:18:39.362Z,7.28
2023-05-09T13:21:06.001Z,16.33
2023-05-09T13:23:32.645Z,13.35
2023-05-09T13:25:59.274Z,12.73
2023-05-09T13:28:25.967Z,7.43
2023-05-09T13:30:58.930Z,10.50
2023-05-09T13:33:37.366Z,7.47
2023-05-09T13:36:04.441Z,7.53
2023-05-09T13:38:32.370Z,7.82
2023-05-09T13:41:14.070Z,8.70
2023-05-09T13:43:42.688Z,9.15
2023-05-09T13:46:29.830Z,11.10
2023-05-09T13:49:08.101Z,11.40
2023-05-09T13:51:34.733Z,19.15
2023-05-09T13:54:01.348Z,24.98
2023-05-09T13:56:27.929Z,17.38
2023-05-09T13:58:54.539Z,10.50
2023-05-09T14:01:21.161Z,9.73
2023-05-09T14:03:49.173Z,10.63
2023-05-09T14:06:15.896Z,18.00
2023-05-09T14:08:42.544Z,8.55
2023-05-09T14:11:09.296Z,10.40
2023-05-09T14:13:35.900Z,9.00
2023-05-09T14:16:02.724Z,7.88
2023-05-09T14:18:29.344Z,6.85
2023-05-09T14:20:56.406Z,17.08
2023-05-09T14:23:23.165Z,7.50
2023-05-09T14:25:49.783Z,5.68
2023-05-09T14:28:16.778Z,18.75
2023-05-09T14:30:43.821Z,10.07
2023-05-09T14:33:10.536Z,5.80
2023-05-09T14:35:39.660Z,9.27
2023-05-09T14:38:07.741Z,6.97
2023-05-09T14:40:34.384Z,11.80
2023-05-09T14:43:05.823Z,7.45
2023-05-09T14:45:33.167Z,7.13
2023-05-09T14:48:00.078Z,10.00
2023-05-09T14:50:26.760Z,20.48
2023-05-09T14:52:53.389Z,9.02
2023-05-09T14:55:21.254Z,10.18
2023-05-09T14:57:47.895Z,12.25
2023-05-09T15:00:21.377Z,5.77
2023-05-09T15:02:49.082Z,6.63
2023-05-09T15:05:16.619Z,6.15
2023-05-09T15:07:43.303Z,6.95
2023-05-09T15:10:10.310Z,5.93
2023-05-09T15:12:36.876Z,9.60
2023-05-09T15:15:17.868Z,7.25
2023-05-09T15:17:45.351Z,7.18
2023-05-09T15:20:14.303Z,5.70
2023-05-09T15:22:41.860Z,6.03
2023-05-09T15:25:09.290Z,12.90
2023-05-09T15:27:36.390Z,9.02
2023-05-09T15:30:04.755Z,8.25
2023-05-09T15:32:31.469Z,7.28
2023-05-09T15:34:58.096Z,8.68
2023-05-09T15:37:24.918Z,10.03
2023-05-09T15:40:03.678Z,7.60
2023-05-09T15:42:30.334Z,8.07
2023-05-09T15:44:57.159Z,8.48
2023-05-09T15:47:23.879Z,7.63
2023-05-09T15:49:50.480Z,8.00
2023-05-09T15:52:17.214Z,6.45
2023-05-09T15:54:45.190Z,10.60
2023-05-09T15:57:13.351Z,6.82
2023-05-09T15:59:40.065Z,7.75
2023-05-09T16:02:06.959Z,10.53
2023-05-09T16:04:33.683Z,8.05
2023-05-09T16:07:02.294Z,7.50
2023-05-09T16:09:29.140Z,8.45
2023-05-09T16:11:56.340Z,5.90
2023-05-09T16:14:23.245Z,8.60
2023-05-09T16:16:52.384Z,10.10
2023-05-09T16:19:19.123Z,5.22
2023-05-09T16:21:46.573Z,5.55
2023-05-09T16:24:13.260Z,4.35
2023-05-09T16:26:39.904Z,6.23
2023-05-09T16:29:06.525Z,9.38
2023-05-09T16:31:35.546Z,6.63
2023-05-09T16:34:02.804Z,4.13
2023-05-09T16:36:29.862Z,4.65
2023-05-09T16:38:56.491Z,6.10
2023-05-09T16:41:23.140Z,6.03
2023-05-09T16:43:49.744Z,7.80
2023-05-09T16:46:16.841Z,4.13
2023-05-09T16:48:43.592Z,6.22
2023-05-09T16:51:10.198Z,5.57
2023-05-09T16:53:36.792Z,3.95
2023-05-09T16:56:04.319Z,5.72
2023-05-09T16:58:31.028Z,5.25
2023-05-09T17:00:59.799Z,6.60
2023-05-09T17:03:26.436Z,5.67
2023-05-09T17:05:53.084Z,6.90
2023-05-09T17:08:19.697Z,4.75
2023-05-09T17:10:46.327Z,5.32
2023-05-09T17:13:12.962Z,7.00
2023-05-09T17:15:39.706Z,6.33
2023-05-09T17:18:06.430Z,9.32
2023-05-09T17:20:33.156Z,7.78
2023-05-09T17:22:59.781Z,7.85
2023-05-09T17:25:26.410Z,8.45
2023-05-09T17:27:53.633Z,7.27
2023-05-09T17:30:22.830Z,5.72
2023-05-09T17:32:50.101Z,6.35
2023-05-09T17:35:19.290Z,6.85
2023-05-09T17:37:46.233Z,7.95
2023-05-09T17:40:13.416Z,7.47
2023-05-09T17:42:40.494Z,8.77
2023-05-09T17:45:07.831Z,7.63
2023-05-09T17:47:34.447Z,7.28
2023-05-09T17:50:01.553Z,8.63
2023-05-09T17:52:28.182Z,8.87
2023-05-09T17:54:54.852Z,8.90
2023-05-09T17:57:22.075Z,11.50
2023-05-09T17:59:48.733Z,9.10
2023-05-09T18:02:15.381Z,8.70
2023-05-09T18:04:42.017Z,8.30
2023-05-09T18:07:08.635Z,9.55
2023-05-09T18:09:35.366Z,7.00
2023-05-09T18:12:01.950Z,7.95
2023-05-09T18:14:28.573Z,7.53
2023-05-09T18:16:55.279Z,7.87
2023-05-09T18:19:21.965Z,8.20
2023-05-09T18:21:48.595Z,13.13
2023-05-09T18:24:17.055Z,8.85
2023-05-09T18:26:43.800Z,10.80
2023-05-09T18:29:10.443Z,8.10
2023-05-09T18:31:39.833Z,7.95
2023-05-09T18:34:06.598Z,6.90
2023-05-09T18:36:33.577Z,7.53
2023-05-09T18:39:00.295Z,7.85
2023-05-09T18:41:28.913Z,7.27
2023-05-09T18:43:57.762Z,7.93
2023-05-09T18:46:27.572Z,7.43
2023-05-09T18:48:54.306Z,6.57
2023-05-09T18:51:21.446Z,8.98
2023-05-09T18:53:48.380Z,14.47
2023-05-09T18:56:15.996Z,13.32
2023-05-09T18:58:42.647Z,7.32
2023-05-09T19:01:11.525Z,11.52
2023-05-09T19:03:45.643Z,7.97
2023-05-09T19:06:13.918Z,8.40
2023-05-09T19:08:43.693Z,9.25
2023-05-09T19:11:11.576Z,9.63
2023-05-09T19:13:40.076Z,11.55
2023-05-09T19:16:07.971Z,10.77
2023-05-09T19:18:34.718Z,9.90
2023-05-09T19:21:01.672Z,13.82
2023-05-09T19:23:28.381Z,9.18
2023-05-09T19:25:55.307Z,8.23
2023-05-09T19:28:22.945Z,7.88
2023-05-09T19:30:50.245Z,6.27
2023-05-09T19:33:17.005Z,7.45
2023-05-09T19:35:44.007Z,7.85
2023-05-09T19:38:11.803Z,8.85
2023-05-09T19:40:41.480Z,7.10
2023-05-09T19:43:08.104Z,7.77
2023-05-09T19:45:34.748Z,7.80
2023-05-09T19:48:01.360Z,9.30
2023-05-09T19:50:28.023Z,5.03
2023-05-09T19:52:54.725Z,10.00
2023-05-09T19:55:21.453Z,9.33
2023-05-09T19:57:48.508Z,6.93
2023-05-09T20:00:15.695Z,6.20
2023-05-09T20:02:42.543Z,7.05
2023-05-09T20:05:09.364Z,8.95
2023-05-09T20:07:36.671Z,8.83
2023-05-09T20:10:03.861Z,6.72
2023-05-09T20:12:30.668Z,7.63
2023-05-09T20:14:57.318Z,14.00
2023-05-09T20:17:24.035Z,6.57
2023-05-09T20:19:51.183Z,10.10
2023-05-09T20:22:17.840Z,10.43
2023-05-09T20:24:44.505Z,22.20
2023-05-09T20:27:11.171Z,11.02
2023-05-09T20:29:37.869Z,16.40
2023-05-09T20:32:04.843Z,10.73
2023-05-09T20:34:31.580Z,12.02
2023-05-09T20:36:58.210Z,6.10
2023-05-09T20:39:24.892Z,7.60
2023-05-09T20:41:52.143Z,10.93
2023-05-09T20:44:19.048Z,14.60
2023-05-09T20:46:45.942Z,23.55
2023-05-09T20:49:13.043Z,6.85
2023-05-09T20:51:39.832Z,11.38
2023-05-09T20:54:06.868Z,9.70
2023-05-09T20:56:35.558Z,14.77
2023-05-09T20:59:03.970Z,9.48
2023-05-09T21:01:36.635Z,14.35
2023-05-09T21:04:05.527Z,12.88
2023-05-09T21:06:33.026Z,8.55
2023-05-09T21:08:59.718Z,10.50
2023-05-09T21:11:26.424Z,11.00
2023-05-09T21:13:53.034Z,12.18
2023-05-09T21:16:19.953Z,15.75
2023-05-09T21:18:46.625Z,10.57
2023-05-09T21:21:13.314Z,14.47
2023-05-09T21:23:40.081Z,14.30
2023-05-09T21:26:06.724Z,15.73
2023-05-09T21:28:33.483Z,13.43
2023-05-09T21:31:01.482Z,14.48
2023-05-09T21:33:28.184Z,12.70
2023-05-09T21:35:54.986Z,13.18
2023-05-09T21:38:21.604Z,13.15
2023-05-09T21:40:50.926Z,11.98
2023-05-09T21:43:18.212Z,12.27
2023-05-09T21:45:45.839Z,11.17
2023-05-09T21:48:12.565Z,10.93
2023-05-09T21:50:39.262Z,12.57
2023-05-09T21:53:06.072Z,13.70
2023-05-09T21:55:32.685Z,15.93
2023-05-09T21:57:59.264Z,14.50
2023-05-09T22:00:25.948Z,15.68
2023-05-09T22:02:52.592Z,21.05
2023-05-09T22:05:19.426Z,18.02
2023-05-09T22:07:46.034Z,24.13
2023-05-09T22:10:12.831Z,20.00
2023-05-09T22:12:39.478Z,20.23
2023-05-09T22:15:06.745Z,20.65
2023-05-09T22:17:33.665Z,26.25
2023-05-09T22:20:00.377Z,23.17
2023-05-09T22:22:27.267Z,22.67
2023-05-09T22:24:53.929Z,25.88
2023-05-09T22:27:20.668Z,29.65
2023-05-09T22:29:47.335Z,34.75
2023-05-09T22:32:14.442Z,34.05
2023-05-09T22:34:41.168Z,32.73
2023-05-09T22:37:07.846Z,33.53
2023-05-09T22:39:34.469Z,26.90
2023-05-09T22:42:03.706Z,31.80
2023-05-09T22:44:30.310Z,35.40
2023-05-09T22:46:57.466Z,37.87
2023-05-09T22:49:24.186Z,28.65
2023-05-09T22:51:50.913Z,30.77
2023-05-09T22:54:21.205Z,30.00
2023-05-09T22:56:47.815Z,36.60
2023-05-09T22:59:14.471Z,33.97
2023-05-09T23:01:41.151Z,29.17
2023-05-09T23:04:07.942Z,33.80
2023-05-09T23:06:34.638Z,30.95
2023-05-09T23:09:01.321Z,35.97
2023-05-09T23:11:27.888Z,38.73
2023-05-09T23:13:54.475Z,30.77
2023-05-09T23:16:21.116Z,33.00
2023-05-09T23:18:47.852Z,33.85
2023-05-09T23:21:14.537Z,35.90
2023-05-09T23:23:41.145Z,37.37
2023-05-09T23:26:07.779Z,36.13
2023-05-09T23:28:34.383Z,32.30
2023-05-09T23:31:01.286Z,34.70
2023-05-09T23:33:27.944Z,31.25
2023-05-09T23:35:54.636Z,37.93
2023-05-09T23:38:21.283Z,31.00
2023-05-09T23:40:48.091Z,34.03
2023-05-09T23:43:14.999Z,36.25
2023-05-09T23:45:41.785Z,43.15
2023-05-09T23:48:08.421Z,35.67
2023-05-09T23:50:35.077Z,32.17
2023-05-09T23:53:04.640Z,32.67
2023-05-09T23:55:31.470Z,40.40
2023-05-09T23:57:58.141Z,47.90
